Time;durP1;ratioP1;P1;durP2;ratioP2;P2;SDS_P1;SDS_P2;PMS_P1;PMS_P2;Temp;Humidity;BMP_temperature;BMP_pressure;BME280_temperature;BME280_humidity;BME280_pressure;Samples;Min_cycle;Max_cycle;Signal;HPM_P1;HPM_P2
2022/08/09 00:01:29;;;;;;;3.17;2.00;;;18.80;55.80;;;;;;5032508;28;20046;-64
2022/08/09 00:03:54;;;;;;;1.75;1.33;;;18.80;55.90;;;;;;5031200;28;20049;-64
2022/08/09 00:06:20;;;;;;;3.47;1.60;;;18.80;55.90;;;;;;5031194;28;20041;-64
2022/08/09 00:08:48;;;;;;;2.65;1.40;;;18.70;55.90;;;;;;5032361;28;20433;-64
2022/08/09 00:11:14;;;;;;;2.35;1.67;;;18.70;55.90;;;;;;5031084;28;20050;-64
2022/08/09 00:13:40;;;;;;;1.75;1.45;;;18.70;56.00;;;;;;5031179;28;20073;-64
2022/08/09 00:16:06;;;;;;;2.75;1.70;;;18.70;56.30;;;;;;5031171;28;20111;-64
2022/08/09 00:18:32;;;;;;;2.95;1.45;;;18.60;55.90;;;;;;5032386;28;20041;-64
2022/08/09 00:20:59;;;;;;;2.45;1.70;;;18.60;56.00;;;;;;5031291;28;20045;-64
2022/08/09 00:23:24;;;;;;;2.05;1.42;;;18.60;56.10;;;;;;5031006;28;20104;-64
2022/08/09 00:25:50;;;;;;;2.35;1.38;;;18.60;56.10;;;;;;5032371;28;20037;-64
2022/08/09 00:28:16;;;;;;;2.58;1.60;;;18.50;56.10;;;;;;5032737;28;20047;-64
2022/08/09 00:30:41;;;;;;;1.85;1.40;;;18.50;56.10;;;;;;5018193;28;20124;-64
2022/08/09 00:33:07;;;;;;;2.50;1.40;;;18.50;56.10;;;;;;5018367;28;20053;-64
2022/08/09 00:35:33;;;;;;;2.90;1.70;;;18.50;56.10;;;;;;5034745;28;20042;-64
2022/08/09 00:37:59;;;;;;;2.05;1.45;;;18.40;56.10;;;;;;5034910;28;20067;-64
2022/08/09 00:40:24;;;;;;;2.88;1.88;;;18.40;56.20;;;;;;5034636;28;20518;-64
2022/08/09 00:42:50;;;;;;;2.00;1.52;;;18.40;56.70;;;;;;5018171;28;20087;-64
2022/08/09 00:45:16;;;;;;;2.35;1.63;;;18.40;56.30;;;;;;5034502;28;20122;-64
2022/08/09 00:47:41;;;;;;;1.75;1.33;;;18.40;56.30;;;;;;5018305;28;20084;-64
2022/08/09 00:50:07;;;;;;;2.75;1.60;;;18.40;56.30;;;;;;5034393;28;20498;-64
2022/08/09 00:52:33;;;;;;;2.72;1.70;;;18.30;56.20;;;;;;5034795;28;20041;-64
2022/08/09 00:55:00;;;;;;;1.85;1.40;;;18.30;56.20;;;;;;5035731;28;20216;-64
2022/08/09 00:57:26;;;;;;;2.00;1.20;;;18.30;56.30;;;;;;5035579;28;20044;-64
2022/08/09 00:59:52;;;;;;;2.28;1.50;;;18.20;56.30;;;;;;5034204;28;20046;-64
2022/08/09 01:02:23;;;;;;;2.08;1.40;;;18.20;56.30;;;;;;5034554;28;20042;-64
2022/08/09 01:04:56;;;;;;;3.60;1.40;;;18.20;56.30;;;;;;5034220;28;20052;-64
2022/08/09 01:08:01;;;;;;;1.73;1.33;;;18.20;56.30;;;;;;5034180;28;20507;-64
2022/08/09 01:10:37;;;;;;;1.20;1.08;;;18.20;56.40;;;;;;5000230;28;20152;-64
2022/08/09 01:13:35;;;;;;;2.55;2.03;;;18.10;56.30;;;;;;5014871;28;20449;-64
2022/08/09 01:16:04;;;;;;;1.95;1.45;;;18.10;56.30;;;;;;5033944;28;20053;-64
2022/08/09 01:18:32;;;;;;;2.42;1.40;;;18.10;56.40;;;;;;5033762;28;20502;-64
2022/08/09 01:21:03;;;;;;;3.70;1.70;;;18.00;56.50;;;;;;5035078;28;20506;-64
2022/08/09 01:23:32;;;;;;;3.08;2.53;;;18.00;56.60;;;;;;5033968;28;20049;-64
2022/08/09 01:26:17;;;;;;;2.60;1.70;;;18.00;56.70;;;;;;5033773;28;20085;-64
2022/08/09 01:28:46;;;;;;;2.40;1.38;;;18.00;56.70;;;;;;5033710;28;20582;-64
2022/08/09 01:31:19;;;;;;;2.10;1.90;;;17.90;56.70;;;;;;5033475;28;20049;-64
2022/08/09 01:33:47;;;;;;;3.03;1.60;;;17.90;56.80;;;;;;5033637;28;20049;-64
2022/08/09 01:36:18;;;;;;;2.60;1.95;;;17.80;56.70;;;;;;5033652;28;20073;-64
2022/08/09 01:38:46;;;;;;;1.33;1.20;;;17.80;56.80;;;;;;5034634;28;20469;-64
2022/08/09 01:41:13;;;;;;;2.50;1.60;;;17.80;56.80;;;;;;5033460;28;20076;-64
2022/08/09 01:43:43;;;;;;;3.58;1.70;;;17.80;56.80;;;;;;5033555;28;20098;-63
2022/08/09 01:46:11;;;;;;;2.78;1.65;;;17.80;56.80;;;;;;5033431;28;20122;-63
2022/08/09 01:48:38;;;;;;;1.45;1.35;;;17.80;56.80;;;;;;5033681;28;20072;-63
2022/08/09 01:51:05;;;;;;;3.00;1.63;;;17.70;56.80;;;;;;5033408;28;20116;-63
2022/08/09 01:53:32;;;;;;;1.95;1.40;;;17.70;56.90;;;;;;5034376;28;20036;-63
2022/08/09 01:56:00;;;;;;;3.10;1.42;;;17.70;56.90;;;;;;5033209;28;20037;-63
2022/08/09 01:58:27;;;;;;;2.80;1.75;;;17.70;57.00;;;;;;5033205;28;20045;-63
2022/08/09 02:00:55;;;;;;;1.73;1.25;;;17.60;56.90;;;;;;5033428;28;20114;-63
2022/08/09 02:03:22;;;;;;;1.42;1.30;;;17.60;57.00;;;;;;5034561;28;20103;-63
2022/08/09 02:05:52;;;;;;;1.45;1.30;;;17.60;56.90;;;;;;5033406;28;20107;-63
2022/08/09 02:08:20;;;;;;;2.10;1.58;;;17.60;56.90;;;;;;5034145;28;20052;-63
2022/08/09 02:10:50;;;;;;;1.42;1.27;;;17.60;56.90;;;;;;5033256;28;20391;-63
2022/08/09 02:13:19;;;;;;;1.73;1.30;;;17.60;57.30;;;;;;5032860;28;20049;-63
2022/08/09 02:15:48;;;;;;;1.80;1.35;;;17.50;56.90;;;;;;5033124;28;20061;-63
2022/08/09 02:18:18;;;;;;;1.67;1.30;;;17.50;56.90;;;;;;5033151;28;20045;-63
2022/08/09 02:20:49;;;;;;;2.03;1.40;;;17.50;56.90;;;;;;5033965;28;20130;-63
2022/08/09 02:23:21;;;;;;;1.98;1.33;;;17.50;56.90;;;;;;5033127;28;20506;-63
2022/08/09 02:25:50;;;;;;;2.13;1.40;;;17.50;56.90;;;;;;5032951;28;20104;-63
2022/08/09 02:28:36;;;;;;;2.00;1.42;;;17.40;56.80;;;;;;5032609;28;20049;-63
2022/08/09 02:31:09;;;;;;;1.80;1.63;;;17.40;56.80;;;;;;5033618;28;20057;-63
2022/08/09 02:33:38;;;;;;;1.50;1.20;;;17.40;56.90;;;;;;5032433;28;20061;-63
2022/08/09 02:36:08;;;;;;;2.38;1.33;;;17.30;56.90;;;;;;5032485;28;20044;-63
2022/08/09 02:38:39;;;;;;;1.40;1.25;;;17.30;56.90;;;;;;5032415;28;20116;-64
2022/08/09 02:41:10;;;;;;;1.40;1.30;;;17.30;56.90;;;;;;5033672;28;20041;-63
2022/08/09 02:43:38;;;;;;;1.15;1.00;;;17.30;56.90;;;;;;5032593;28;20097;-62
2022/08/09 02:46:07;;;;;;;1.52;1.02;;;17.20;56.80;;;;;;5032230;28;20049;-63
2022/08/09 02:48:35;;;;;;;1.75;1.20;;;17.20;56.80;;;;;;5032614;28;20171;-63
2022/08/09 02:51:02;;;;;;;1.95;0.93;;;17.20;56.80;;;;;;5031612;28;20514;-63
2022/08/09 02:53:32;;;;;;;1.70;1.48;;;17.20;56.80;;;;;;5033533;28;20033;-63
2022/08/09 02:55:59;;;;;;;1.15;1.05;;;17.20;56.90;;;;;;5032228;28;20052;-63
2022/08/09 02:58:30;;;;;;;2.30;1.15;;;17.10;56.80;;;;;;5032006;28;20056;-64
2022/08/09 03:00:57;;;;;;;1.50;1.38;;;17.10;56.80;;;;;;5032262;28;20045;-64
2022/08/09 03:03:24;;;;;;;1.83;1.40;;;17.10;56.90;;;;;;5032353;28;20411;-64
2022/08/09 03:05:52;;;;;;;1.45;1.13;;;17.10;56.90;;;;;;5032229;28;20045;-64
2022/08/09 03:08:19;;;;;;;2.10;1.10;;;17.10;56.90;;;;;;5031912;28;20044;-64
2022/08/09 03:10:46;;;;;;;1.88;1.10;;;17.00;56.80;;;;;;5031760;28;20081;-64
2022/08/09 03:13:14;;;;;;;1.17;1.00;;;17.00;56.90;;;;;;5032073;28;20076;-63
2022/08/09 03:15:41;;;;;;;1.45;1.00;;;17.00;56.90;;;;;;5033203;28;20076;-65
2022/08/09 03:18:09;;;;;;;1.17;1.08;;;17.00;56.90;;;;;;5031830;28;20076;-64
2022/08/09 03:20:38;;;;;;;1.38;1.10;;;17.00;56.90;;;;;;5015405;28;20045;-64
2022/08/09 03:23:04;;;;;;;1.60;1.20;;;16.90;56.90;;;;;;5031898;28;20231;-64
2022/08/09 03:25:32;;;;;;;1.00;0.90;;;16.90;56.90;;;;;;5048348;28;20046;-64
2022/08/09 03:28:00;;;;;;;1.15;1.05;;;16.90;56.90;;;;;;5031641;28;20103;-64
2022/08/09 03:30:27;;;;;;;1.60;1.38;;;16.90;56.90;;;;;;5031302;28;20483;-63
2022/08/09 03:32:55;;;;;;;1.05;0.93;;;16.90;57.00;;;;;;5032894;28;20410;-63
2022/08/09 03:35:21;;;;;;;1.08;0.95;;;16.90;56.90;;;;;;5031665;28;20099;-63
2022/08/09 03:37:47;;;;;;;1.30;1.00;;;16.80;56.80;;;;;;5031860;28;20053;-63
2022/08/09 03:40:14;;;;;;;1.70;1.13;;;16.80;56.80;;;;;;5031503;28;20052;-63
2022/08/09 03:42:40;;;;;;;1.70;1.20;;;16.80;56.90;;;;;;5015225;28;20094;-63
2022/08/09 03:45:06;;;;;;;1.33;1.20;;;16.80;56.90;;;;;;5031502;28;20045;-63
2022/08/09 03:47:32;;;;;;;1.67;1.27;;;16.80;57.00;;;;;;5031691;28;20049;-62
2022/08/09 03:50:01;;;;;;;1.52;1.20;;;16.80;57.40;;;;;;5031359;28;20601;-62
2022/08/09 03:52:29;;;;;;;1.85;1.38;;;16.70;57.00;;;;;;5032547;28;20045;-63
2022/08/09 03:54:58;;;;;;;2.05;1.50;;;16.70;57.10;;;;;;5032743;28;20069;-63
2022/08/09 03:57:24;;;;;;;3.28;1.55;;;16.70;57.10;;;;;;5031641;28;20045;-63
2022/08/09 03:59:51;;;;;;;2.30;1.60;;;16.70;57.10;;;;;;5031461;28;20038;-68
2022/08/09 04:02:19;;;;;;;1.48;1.25;;;16.70;57.20;;;;;;5033144;28;20041;-63
2022/08/09 04:04:45;;;;;;;1.75;1.30;;;16.70;57.20;;;;;;5035288;28;20588;-64
2022/08/09 04:07:11;;;;;;;1.77;1.35;;;16.70;57.20;;;;;;5051873;28;20442;-64
2022/08/09 04:09:36;;;;;;;2.28;1.50;;;16.70;57.30;;;;;;5036441;28;20053;-63
2022/08/09 04:12:08;;;;;;;1.98;1.50;;;16.60;57.20;;;;;;5035174;28;20038;-63
2022/08/09 04:14:35;;;;;;;2.35;1.70;;;16.60;57.20;;;;;;5035432;28;20053;-63
2022/08/09 04:17:00;;;;;;;2.20;1.67;;;16.60;57.30;;;;;;5036403;28;20041;-64
2022/08/09 04:19:26;;;;;;;2.35;1.80;;;16.60;57.30;;;;;;5036355;28;20051;-63
2022/08/09 04:21:52;;;;;;;2.35;1.75;;;16.60;57.30;;;;;;5034821;28;20442;-63
2022/08/09 04:24:18;;;;;;;2.25;1.73;;;16.60;57.40;;;;;;5034998;28;20081;-63
2022/08/09 04:26:43;;;;;;;2.55;1.63;;;16.60;57.40;;;;;;5036340;28;20034;-63
2022/08/09 04:29:09;;;;;;;2.65;1.92;;;16.60;57.50;;;;;;5035182;28;20649;-63
2022/08/09 04:31:35;;;;;;;2.50;1.92;;;16.60;57.50;;;;;;5034546;28;20410;-63
2022/08/09 04:34:01;;;;;;;2.53;1.70;;;16.60;57.60;;;;;;5034778;28;20089;-63
2022/08/09 04:36:29;;;;;;;3.08;1.90;;;16.60;57.60;;;;;;5034649;28;20076;-63
2022/08/09 04:39:00;;;;;;;2.63;1.90;;;16.60;57.70;;;;;;5034726;28;20491;-63
2022/08/09 04:41:27;;;;;;;2.33;1.77;;;16.50;57.70;;;;;;5034423;28;20045;-63
2022/08/09 04:43:53;;;;;;;2.05;1.52;;;16.60;57.70;;;;;;5001811;28;20513;-62
2022/08/09 04:46:19;;;;;;;2.35;2.03;;;16.50;57.70;;;;;;5034438;28;20042;-63
2022/08/09 04:48:45;;;;;;;2.55;2.03;;;16.50;57.80;;;;;;5034499;28;20045;-63
2022/08/09 04:51:11;;;;;;;2.72;2.05;;;16.50;57.90;;;;;;5035685;28;20048;-67
2022/08/09 04:53:38;;;;;;;2.80;2.15;;;16.50;58.00;;;;;;5034609;28;20399;-69
2022/08/09 04:56:04;;;;;;;3.03;2.42;;;16.50;58.00;;;;;;5034361;28;20560;-68
2022/08/09 04:58:29;;;;;;;2.35;2.03;;;16.50;58.00;;;;;;5034346;28;20178;-68
2022/08/09 05:00:55;;;;;;;2.90;2.25;;;16.50;58.20;;;;;;5034371;28;20128;-68
2022/08/09 05:03:22;;;;;;;2.78;2.00;;;16.50;58.30;;;;;;5035379;28;20053;-68
2022/08/09 05:05:48;;;;;;;3.10;1.70;;;16.50;58.40;;;;;;5034163;28;20131;-68
2022/08/09 05:08:14;;;;;;;2.40;1.90;;;16.50;58.50;;;;;;5034396;28;20081;-68
2022/08/09 05:10:40;;;;;;;2.20;1.95;;;16.50;58.60;;;;;;5033989;28;20056;-68
2022/08/09 05:13:06;;;;;;;3.17;2.58;;;16.50;59.00;;;;;;5033805;28;20045;-68
2022/08/09 05:15:32;;;;;;;2.58;2.10;;;16.60;59.30;;;;;;5033920;28;20552;-68
2022/08/09 05:17:57;;;;;;;2.38;2.00;;;16.60;59.50;;;;;;5035334;28;20033;-69
2022/08/09 05:20:24;;;;;;;3.10;2.58;;;16.60;59.70;;;;;;5035199;28;20560;-68
2022/08/09 05:22:52;;;;;;;2.47;1.95;;;16.60;59.90;;;;;;5034142;28;20054;-68
2022/08/09 05:25:22;;;;;;;3.58;3.00;;;16.60;59.90;;;;;;5033840;28;20041;-68
2022/08/09 05:27:49;;;;;;;3.35;3.05;;;16.70;60.30;;;;;;5033788;28;20049;-68
2022/08/09 05:30:16;;;;;;;3.78;3.00;;;16.70;60.60;;;;;;5050290;28;20049;-68
2022/08/09 05:32:43;;;;;;;2.28;2.03;;;16.70;61.10;;;;;;5033477;28;20129;-68
2022/08/09 05:35:10;;;;;;;3.00;2.50;;;16.70;60.90;;;;;;5033656;28;20076;-68
2022/08/09 05:37:36;;;;;;;2.80;2.42;;;16.70;60.90;;;;;;5033541;28;20116;-68
2022/08/09 05:40:02;;;;;;;3.22;2.35;;;16.70;61.00;;;;;;5033499;28;20133;-68
2022/08/09 05:42:28;;;;;;;2.85;2.42;;;16.70;60.90;;;;;;5033472;28;20052;-68
2022/08/09 05:44:54;;;;;;;3.10;2.80;;;16.80;61.10;;;;;;5033456;28;20045;-68
2022/08/09 05:47:22;;;;;;;3.80;3.17;;;16.70;61.30;;;;;;5033689;28;20470;-64
2022/08/09 05:49:48;;;;;;;3.90;2.97;;;16.80;61.80;;;;;;5033406;28;20041;-64
2022/08/09 05:52:14;;;;;;;3.13;2.72;;;16.80;62.10;;;;;;5033226;28;20120;-63
2022/08/09 05:54:40;;;;;;;3.95;3.15;;;16.90;62.80;;;;;;5033328;28;20200;-63
2022/08/09 05:57:06;;;;;;;4.65;3.83;;;17.00;63.20;;;;;;5033293;28;20041;-64
2022/08/09 05:59:32;;;;;;;4.47;3.50;;;17.30;63.60;;;;;;5033198;28;20411;-64
2022/08/09 06:01:57;;;;;;;4.20;3.13;;;17.60;63.70;;;;;;5033102;28;20055;-64
2022/08/09 06:04:23;;;;;;;4.28;3.22;;;18.10;63.50;;;;;;5033100;28;20046;-64
2022/08/09 06:06:49;;;;;;;4.72;3.30;;;18.60;62.70;;;;;;5033087;28;20045;-63
2022/08/09 06:09:15;;;;;;;4.20;3.20;;;19.10;61.90;;;;;;5033304;28;20053;-64
2022/08/09 06:11:40;;;;;;;4.90;3.42;;;19.60;61.10;;;;;;5034150;28;20041;-64
2022/08/09 06:14:06;;;;;;;4.78;3.17;;;20.20;60.20;;;;;;5032919;28;20403;-64
2022/08/09 06:16:32;;;;;;;4.05;3.45;;;20.70;59.30;;;;;;5034123;28;20045;-64
2022/08/09 06:18:58;;;;;;;5.22;3.78;;;21.20;58.50;;;;;;5032826;28;20048;-64
2022/08/09 06:21:23;;;;;;;6.25;4.28;;;21.70;57.70;;;;;;5032818;28;20128;-64
2022/08/09 06:23:51;;;;;;;5.72;4.65;;;22.20;56.80;;;;;;5033099;28;20470;-64
2022/08/09 06:26:18;;;;;;;4.35;3.70;;;22.70;55.80;;;;;;5031758;28;20049;-63
2022/08/09 06:28:44;;;;;;;5.78;3.40;;;23.20;55.10;;;;;;5033895;28;20069;-62
2022/08/09 06:31:10;;;;;;;4.05;3.47;;;23.60;54.20;;;;;;5049118;28;20511;-62
2022/08/09 06:33:36;;;;;;;4.35;2.78;;;23.90;53.50;;;;;;5032589;28;20510;-62
2022/08/09 06:36:01;;;;;;;5.05;3.38;;;24.30;52.70;;;;;;5033853;28;20045;-63
2022/08/09 06:38:27;;;;;;;4.20;3.22;;;24.50;52.40;;;;;;5032748;28;20433;-63
2022/08/09 06:40:53;;;;;;;3.03;1.98;;;24.80;51.90;;;;;;5032413;28;20487;-63
2022/08/09 06:43:18;;;;;;;2.95;2.33;;;25.10;50.70;;;;;;5033638;28;20087;-63
2022/08/09 06:45:44;;;;;;;6.07;2.67;;;25.30;50.70;;;;;;5015931;28;20048;-63
2022/08/09 06:48:11;;;;;;;5.75;2.78;;;25.60;50.30;;;;;;5033767;28;20037;-63
2022/08/09 06:50:36;;;;;;;5.95;2.65;;;25.90;49.80;;;;;;5048827;28;20085;-64
2022/08/09 06:53:03;;;;;;;4.32;2.72;;;26.10;49.40;;;;;;5032139;28;20103;-64
2022/08/09 06:55:31;;;;;;;4.10;2.20;;;26.30;49.20;;;;;;5032148;28;20052;-64
2022/08/09 06:58:02;;;;;;;3.75;2.60;;;26.40;48.60;;;;;;5150308;27;1259093;-64
2022/08/09 07:00:28;;;;;;;5.22;2.30;;;26.60;48.20;;;;;;5153951;27;20046;-64
2022/08/09 07:02:54;;;;;;;4.57;2.80;;;26.70;48.50;;;;;;5154425;27;20397;-64
2022/08/09 07:05:20;;;;;;;3.70;1.95;;;26.80;47.80;;;;;;5153990;27;20054;-64
2022/08/09 07:07:45;;;;;;;3.92;2.70;;;27.00;47.20;;;;;;5154270;27;20042;-64
2022/08/09 07:10:11;;;;;;;5.43;2.65;;;27.10;46.90;;;;;;5154194;27;20039;-64
2022/08/09 07:12:37;;;;;;;5.15;1.95;;;27.10;46.90;;;;;;5153826;27;20039;-64
2022/08/09 07:15:03;;;;;;;5.90;2.50;;;27.20;46.60;;;;;;5153831;27;20164;-64
2022/08/09 07:17:29;;;;;;;3.30;2.08;;;27.30;46.50;;;;;;5153697;27;20058;-64
2022/08/09 07:19:56;;;;;;;2.53;1.90;;;27.40;46.30;;;;;;5153720;27;20047;-64
2022/08/09 07:22:22;;;;;;;4.45;2.00;;;27.50;46.30;;;;;;5151582;27;20043;-64
2022/08/09 07:24:48;;;;;;;2.78;1.35;;;27.60;45.70;;;;;;5132879;27;20504;-64
2022/08/09 07:27:14;;;;;;;4.70;1.60;;;27.60;45.40;;;;;;5150215;27;20050;-64
2022/08/09 07:29:40;;;;;;;3.20;1.45;;;27.50;45.20;;;;;;5150051;27;20074;-64
2022/08/09 07:32:06;;;;;;;2.28;0.82;;;27.50;45.20;;;;;;5150337;27;20043;-64
2022/08/09 07:34:32;;;;;;;2.30;1.00;;;27.50;44.60;;;;;;5150063;27;20035;-62
2022/08/09 07:36:59;;;;;;;1.80;0.80;;;27.60;44.60;;;;;;5151172;27;20031;-63
2022/08/09 07:39:24;;;;;;;2.20;1.00;;;27.50;44.40;;;;;;5149863;27;20039;-63
2022/08/09 07:41:50;;;;;;;2.30;1.00;;;27.50;44.80;;;;;;5149766;27;20081;-63
2022/08/09 07:44:16;;;;;;;3.88;1.00;;;27.50;44.80;;;;;;5151105;27;20055;-63
2022/08/09 07:46:42;;;;;;;2.92;1.20;;;27.40;44.50;;;;;;5151297;27;20462;-64
2022/08/09 07:49:08;;;;;;;1.65;0.85;;;27.40;44.50;;;;;;5149757;27;20082;-63
2022/08/09 07:51:33;;;;;;;2.50;1.10;;;27.40;44.10;;;;;;5132689;27;20047;-63
2022/08/09 07:53:59;;;;;;;3.55;0.90;;;27.30;44.20;;;;;;5115229;27;20047;-64
2022/08/09 07:56:26;;;;;;;3.80;0.85;;;27.30;44.10;;;;;;5114918;27;20089;-63
2022/08/09 07:58:53;;;;;;;1.42;0.73;;;27.20;44.30;;;;;;5150820;27;20537;-64
2022/08/09 08:01:18;;;;;;;1.67;0.52;;;27.00;43.60;;;;;;5115525;27;20389;-65
2022/08/09 08:03:44;;;;;;;2.25;0.80;;;26.90;44.10;;;;;;5150853;27;20042;-65
2022/08/09 08:06:10;;;;;;;2.40;0.88;;;26.80;44.20;;;;;;5150685;27;20046;-63
2022/08/09 08:08:36;;;;;;;1.58;0.70;;;26.70;44.40;;;;;;5140225;27;20057;-65
2022/08/09 08:11:02;;;;;;;2.45;0.80;;;26.60;44.70;;;;;;5135688;27;20046;-65
2022/08/09 08:13:28;;;;;;;3.45;1.00;;;26.60;44.80;;;;;;5135336;27;20486;-65
2022/08/09 08:15:53;;;;;;;2.45;0.85;;;26.70;44.50;;;;;;5135648;27;20042;-65
2022/08/09 08:18:19;;;;;;;2.20;0.70;;;26.70;44.30;;;;;;5136559;27;20551;-65
2022/08/09 08:20:45;;;;;;;2.33;0.90;;;26.70;44.50;;;;;;5135177;27;20035;-65
2022/08/09 08:23:11;;;;;;;2.53;0.63;;;26.80;44.50;;;;;;5118280;27;20038;-65
2022/08/09 08:25:37;;;;;;;2.10;0.77;;;26.90;43.80;;;;;;5136243;27;20199;-65
2022/08/09 08:28:03;;;;;;;1.88;0.90;;;27.00;43.90;;;;;;5136438;27;20085;-64
2022/08/09 08:30:29;;;;;;;2.35;0.70;;;27.00;43.80;;;;;;5101236;27;20039;-65
2022/08/09 08:32:55;;;;;;;1.17;0.73;;;27.10;43.80;;;;;;5118459;27;20039;-64
2022/08/09 08:35:21;;;;;;;1.80;0.95;;;27.10;43.60;;;;;;5135019;27;20074;-65
2022/08/09 08:37:47;;;;;;;1.45;0.75;;;27.20;43.90;;;;;;5117890;27;20041;-65
2022/08/09 08:40:13;;;;;;;1.70;0.80;;;27.20;43.50;;;;;;5134880;27;20506;-65
2022/08/09 08:42:41;;;;;;;3.05;0.80;;;27.30;43.70;;;;;;5134896;27;20043;-63
2022/08/09 08:45:07;;;;;;;2.45;1.00;;;27.40;43.70;;;;;;5100760;27;20039;-63
2022/08/09 08:47:33;;;;;;;2.65;0.98;;;27.50;43.40;;;;;;5136130;27;20119;-63
2022/08/09 08:49:59;;;;;;;1.00;0.57;;;27.50;43.40;;;;;;5117781;27;20071;-63
2022/08/09 08:52:29;;;;;;;1.95;0.60;;;27.60;43.70;;;;;;5135931;27;20123;-63
2022/08/09 08:54:58;;;;;;;2.65;0.77;;;27.70;43.60;;;;;;5136123;27;20042;-64
2022/08/09 08:57:26;;;;;;;1.50;0.65;;;27.80;42.70;;;;;;5134371;27;20059;-64
2022/08/09 08:59:52;;;;;;;1.67;0.82;;;27.80;42.90;;;;;;5134625;27;20046;-68
2022/08/09 09:02:22;;;;;;;2.78;1.00;;;27.80;42.90;;;;;;5134519;27;20039;-68
2022/08/09 09:04:57;;;;;;;1.77;0.70;;;27.90;43.20;;;;;;5134666;27;20038;-68
2022/08/09 09:07:24;;;;;;;4.47;1.00;;;27.80;42.00;;;;;;5135618;27;20408;-68
2022/08/09 09:09:51;;;;;;;1.02;0.50;;;27.70;42.40;;;;;;5134263;27;20043;-68
2022/08/09 09:12:20;;;;;;;0.77;0.50;;;27.70;42.30;;;;;;5135542;27;20122;-64
2022/08/09 09:14:47;;;;;;;1.48;0.50;;;27.60;42.30;;;;;;5134475;27;20470;-64
2022/08/09 09:17:13;;;;;;;1.65;0.40;;;27.50;42.30;;;;;;5117044;27;20122;-64
2022/08/09 09:19:39;;;;;;;2.00;0.70;;;27.50;42.30;;;;;;5098849;27;20035;-63
2022/08/09 09:22:09;;;;;;;5.30;1.45;;;27.50;42.30;;;;;;5135176;27;20031;-64
2022/08/09 09:24:48;;;;;;;1.73;0.50;;;27.50;42.20;;;;;;5135355;27;20091;-63
2022/08/09 09:27:24;;;;;;;2.40;0.50;;;27.50;42.20;;;;;;5135322;27;20438;-63
2022/08/09 09:29:50;;;;;;;2.53;0.50;;;27.40;41.80;;;;;;5134007;27;20051;-63
2022/08/09 09:32:24;;;;;;;1.83;0.60;;;27.40;42.30;;;;;;5135115;27;20123;-63
2022/08/09 09:35:02;;;;;;;0.60;0.40;;;27.40;41.90;;;;;;5135350;27;20047;-63
2022/08/09 09:37:28;;;;;;;1.38;0.50;;;27.40;41.90;;;;;;5135143;27;20071;-63
2022/08/09 09:39:54;;;;;;;2.08;0.45;;;27.40;41.70;;;;;;5133710;27;20043;-63
2022/08/09 09:42:26;;;;;;;2.45;0.50;;;27.30;42.10;;;;;;5135026;27;20066;-63
2022/08/09 09:45:03;;;;;;;1.88;0.52;;;27.20;41.90;;;;;;5117014;27;20071;-63
2022/08/09 09:47:28;;;;;;;1.88;0.70;;;27.20;42.40;;;;;;5135104;27;20038;-63
2022/08/09 09:49:56;;;;;;;0.90;0.40;;;27.20;42.90;;;;;;5134816;27;20039;-63
2022/08/09 09:52:23;;;;;;;1.80;0.80;;;27.10;43.10;;;;;;5116537;27;20122;-64
2022/08/09 09:54:48;;;;;;;2.35;0.50;;;27.40;43.30;;;;;;5133624;27;20043;-63
2022/08/09 09:57:22;;;;;;;1.13;0.40;;;27.60;42.80;;;;;;5134423;27;20482;-63
2022/08/09 09:59:51;;;;;;;2.08;0.50;;;27.60;42.70;;;;;;5133318;27;20517;-63
2022/08/09 10:02:18;;;;;;;1.50;0.90;;;27.70;42.40;;;;;;5116538;27;20104;-64
2022/08/09 10:05:00;;;;;;;1.15;0.43;;;27.70;42.10;;;;;;5133331;27;20069;-63
2022/08/09 10:07:27;;;;;;;1.33;0.50;;;27.70;42.10;;;;;;5133296;27;20047;-64
2022/08/09 10:09:55;;;;;;;2.42;0.43;;;27.60;42.00;;;;;;5133467;27;20078;-63
2022/08/09 10:12:38;;;;;;;1.35;0.63;;;27.60;43.00;;;;;;5134592;27;20374;-63
2022/08/09 10:15:15;;;;;;;1.10;0.40;;;27.70;42.40;;;;;;5133055;27;20483;-64
2022/08/09 10:17:46;;;;;;;1.52;0.50;;;27.80;42.30;;;;;;5132951;27;20051;-64
2022/08/09 10:20:22;;;;;;;1.25;0.40;;;27.80;42.10;;;;;;5132963;27;20047;-63
2022/08/09 10:22:49;;;;;;;1.13;0.52;;;27.90;41.80;;;;;;5133252;27;20043;-63
2022/08/09 10:25:15;;;;;;;1.33;0.60;;;28.00;42.00;;;;;;5133978;27;20039;-64
2022/08/09 10:27:42;;;;;;;1.27;0.50;;;28.10;42.50;;;;;;5115695;28;20050;-64
2022/08/09 10:30:08;;;;;;;0.90;0.50;;;28.10;42.50;;;;;;5132837;27;20050;-63
2022/08/09 10:32:34;;;;;;;1.88;0.55;;;28.10;41.80;;;;;;5133029;27;20459;-63
2022/08/09 10:35:00;;;;;;;0.73;0.40;;;28.10;41.70;;;;;;5132734;27;20047;-63
2022/08/09 10:37:27;;;;;;;1.20;0.47;;;28.10;42.10;;;;;;5132633;27;20498;-63
2022/08/09 10:39:53;;;;;;;1.00;0.40;;;28.20;42.10;;;;;;5115601;28;20039;-63
2022/08/09 10:42:21;;;;;;;0.80;0.30;;;28.20;41.80;;;;;;5098663;27;20118;-63
2022/08/09 10:45:05;;;;;;;1.58;0.50;;;28.20;42.00;;;;;;5132704;27;20127;-63
2022/08/09 10:47:47;;;;;;;2.03;0.80;;;28.20;41.80;;;;;;5132680;27;20110;-63
2022/08/09 10:50:22;;;;;;;1.95;0.80;;;28.20;41.60;;;;;;5132914;27;20108;-63
2022/08/09 10:53:22;;;;;;;1.42;0.75;;;28.20;41.50;;;;;;5132609;27;20076;-63
2022/08/09 10:55:47;;;;;;;1.27;0.50;;;28.10;41.70;;;;;;5132361;28;20077;-63
2022/08/09 10:58:31;;;;;;;1.40;0.40;;;28.10;41.70;;;;;;5132471;28;20086;-63
2022/08/09 11:00:56;;;;;;;1.20;0.52;;;28.10;41.90;;;;;;5115709;28;20127;-63
2022/08/09 11:03:25;;;;;;;0.30;0.30;;;28.10;41.70;;;;;;5133808;28;20071;-63
2022/08/09 11:06:21;;;;;;;0.85;0.30;;;28.10;41.50;;;;;;5115495;28;20047;-62
2022/08/09 11:08:48;;;;;;;1.30;0.57;;;28.10;41.10;;;;;;5098634;28;20036;-62
2022/08/09 11:11:15;;;;;;;1.85;0.40;;;27.90;41.60;;;;;;5132436;28;20039;-63
2022/08/09 11:13:41;;;;;;;0.75;0.32;;;27.90;41.80;;;;;;5133727;28;20039;-63
2022/08/09 11:16:33;;;;;;;1.17;0.60;;;28.00;41.70;;;;;;5132253;28;20451;-63
2022/08/09 11:18:59;;;;;;;1.17;0.77;;;28.10;41.50;;;;;;5115545;28;20042;-63
2022/08/09 11:21:50;;;;;;;1.85;0.60;;;28.10;42.00;;;;;;5133460;28;20115;-63
2022/08/09 11:24:17;;;;;;;1.83;0.50;;;28.20;42.40;;;;;;5132619;28;20043;-68
2022/08/09 11:26:44;;;;;;;2.00;0.50;;;28.20;42.00;;;;;;5115233;28;20048;-68
2022/08/09 11:29:48;;;;;;;1.52;0.30;;;28.20;41.70;;;;;;5115371;28;20529;-63
2022/08/09 11:32:44;;;;;;;2.60;0.45;;;28.20;41.70;;;;;;5132137;28;20393;-63
2022/08/09 11:35:16;;;;;;;0.73;0.40;;;28.30;41.10;;;;;;5132030;28;20039;-63
2022/08/09 11:37:44;;;;;;;2.42;0.65;;;28.20;41.00;;;;;;5133467;28;20039;-63
2022/08/09 11:40:31;;;;;;;2.83;0.68;;;28.20;40.70;;;;;;5115197;28;20039;-63
2022/08/09 11:42:59;;;;;;;2.55;0.40;;;28.10;41.20;;;;;;5134119;27;20120;-63
2022/08/09 11:45:31;;;;;;;0.43;0.30;;;28.00;41.60;;;;;;5137219;27;20148;-63
2022/08/09 11:47:59;;;;;;;1.23;0.40;;;28.10;41.80;;;;;;5102060;27;20071;-63
2022/08/09 11:50:26;;;;;;;0.80;0.20;;;28.00;41.30;;;;;;5135884;27;20051;-63
2022/08/09 11:52:58;;;;;;;2.25;0.35;;;28.10;40.70;;;;;;5137278;27;20050;-63
2022/08/09 11:55:38;;;;;;;1.40;0.30;;;28.10;40.90;;;;;;5135793;27;20051;-63
2022/08/09 11:58:10;;;;;;;1.45;0.60;;;28.10;41.10;;;;;;5136772;27;20082;-63
2022/08/09 12:00:49;;;;;;;1.75;0.40;;;28.10;41.00;;;;;;5135712;27;20494;-63
2022/08/09 12:03:23;;;;;;;1.08;0.32;;;28.10;41.00;;;;;;5136071;27;20360;-62
2022/08/09 12:05:54;;;;;;;0.73;0.35;;;28.10;40.90;;;;;;5136967;27;20071;-63
2022/08/09 12:08:20;;;;;;;1.17;0.40;;;28.10;41.20;;;;;;5118549;27;20092;-63
2022/08/09 12:10:49;;;;;;;1.95;0.28;;;28.10;40.70;;;;;;5135850;27;20039;-63
2022/08/09 12:13:36;;;;;;;0.90;0.38;;;28.10;41.10;;;;;;5135492;27;20071;-63
2022/08/09 12:16:03;;;;;;;1.38;0.50;;;28.20;41.20;;;;;;5118287;27;20555;-62
2022/08/09 12:18:30;;;;;;;1.08;0.30;;;28.20;41.20;;;;;;5135569;27;20043;-63
2022/08/09 12:20:57;;;;;;;0.63;0.30;;;28.20;40.70;;;;;;5135518;27;20087;-63
2022/08/09 12:23:22;;;;;;;0.88;0.28;;;28.20;41.10;;;;;;5136799;27;20035;-63
2022/08/09 12:25:51;;;;;;;1.55;0.30;;;28.20;41.10;;;;;;5118047;27;20091;-63
2022/08/09 12:28:22;;;;;;;1.10;0.30;;;28.20;41.10;;;;;;5136429;27;20067;-63
2022/08/09 12:30:49;;;;;;;0.82;0.30;;;28.20;40.80;;;;;;5118196;27;20130;-63
2022/08/09 12:33:16;;;;;;;0.93;0.25;;;28.10;40.70;;;;;;5136401;27;20039;-62
2022/08/09 12:35:42;;;;;;;1.88;0.30;;;28.10;41.50;;;;;;5136086;27;20039;-63
2022/08/09 12:38:22;;;;;;;1.58;0.25;;;28.10;42.00;;;;;;5134922;27;20115;-63
2022/08/09 12:40:50;;;;;;;1.20;0.30;;;28.20;41.60;;;;;;5136468;27;20486;-63
2022/08/09 12:43:19;;;;;;;3.28;0.85;;;28.20;41.40;;;;;;5136188;27;20047;-63
2022/08/09 12:45:46;;;;;;;0.75;0.20;;;28.30;41.10;;;;;;5134804;27;20541;-62
2022/08/09 12:48:13;;;;;;;1.83;0.32;;;28.20;40.90;;;;;;5136011;27;20043;-63
2022/08/09 12:50:39;;;;;;;1.42;0.32;;;28.20;40.80;;;;;;5136085;27;20039;-62
2022/08/09 12:53:21;;;;;;;1.05;0.40;;;28.20;41.00;;;;;;5117848;27;20035;-62
2022/08/09 12:55:47;;;;;;;0.43;0.25;;;28.30;41.30;;;;;;5135829;27;20367;-63